Time;durP1;ratioP1;P1;durP2;ratioP2;P2;SDS_P1;SDS_P2;PMS_P1;PMS_P2;Temp;Humidity;BMP_temperature;BMP_pressure;BME280_temperature;BME280_humidity;BME280_pressure;Samples;Min_cycle;Max_cycle;Signal;HPM_P1;HPM_P2
2023/10/31 00:00:17;;;;;;;;;;;20.40;1.00;;;;;;4927423;29;19949;-50
2023/10/31 00:02:44;;;;;;;;;;;20.40;1.00;;;;;;4935140;29;19982;-48
2023/10/31 00:05:10;;;;;;;;;;;20.40;1.00;;;;;;4934457;29;19978;-49
2023/10/31 00:07:37;;;;;;;;;;;20.40;1.00;;;;;;4935174;29;19927;-48
2023/10/31 00:10:04;;;;;;;;;;;20.40;1.00;;;;;;4937869;29;19927;-49
2023/10/31 00:12:31;;;;;;;;;;;20.40;1.00;;;;;;4938996;29;20428;-49
2023/10/31 00:14:58;;;;;;;;;;;20.40;1.00;;;;;;4938692;29;20394;-48
2023/10/31 00:17:25;;;;;;;;;;;20.30;1.00;;;;;;4938950;29;19927;-48
2023/10/31 00:19:52;;;;;;;;;;;20.30;1.00;;;;;;4938670;29;19933;-48
2023/10/31 00:22:19;;;;;;;;;;;20.30;1.00;;;;;;4938866;29;19930;-50
2023/10/31 00:24:46;;;;;;;;;;;20.30;1.00;;;;;;4921502;29;20022;-50
2023/10/31 00:27:14;;;;;;;;;;;20.30;1.00;;;;;;4938863;29;19935;-48
2023/10/31 00:29:41;;;;;;;;;;;20.20;1.00;;;;;;4921402;29;19950;-48
2023/10/31 00:32:07;;;;;;;;;;;20.20;1.00;;;;;;4921401;29;20397;-48
2023/10/31 00:34:34;;;;;;;;;;;20.20;1.00;;;;;;4921209;29;19927;-50
2023/10/31 00:37:01;;;;;;;;;;;20.20;1.00;;;;;;4921366;29;19927;-49
2023/10/31 00:39:28;;;;;;;;;;;20.20;1.00;;;;;;4921348;29;19930;-48
2023/10/31 00:41:55;;;;;;;;;;;20.20;1.00;;;;;;4929026;29;20393;-49
2023/10/31 00:44:21;;;;;;;;;;;20.20;1.00;;;;;;4938353;29;19933;-51
2023/10/31 00:46:48;;;;;;;;;;;20.10;1.00;;;;;;4921236;29;19937;-50
2023/10/31 00:49:15;;;;;;;;;;;20.10;1.00;;;;;;4938219;29;20271;-51
2023/10/31 00:51:42;;;;;;;;;;;20.10;1.00;;;;;;4920911;29;19927;-48
2023/10/31 00:54:08;;;;;;;;;;;20.10;1.00;;;;;;4938038;29;20297;-48
2023/10/31 00:56:35;;;;;;;;;;;20.10;1.00;;;;;;4938205;29;19969;-48
2023/10/31 00:59:02;;;;;;;;;;;20.00;1.00;;;;;;4920916;29;19927;-49
2023/10/31 01:01:28;;;;;;;;;;;20.00;1.00;;;;;;4921017;29;19954;-48
2023/10/31 01:03:55;;;;;;;;;;;20.00;1.00;;;;;;4920841;29;19934;-48
2023/10/31 01:06:22;;;;;;;;;;;20.00;1.00;;;;;;4920821;29;20025;-48
2023/10/31 01:08:49;;;;;;;;;;;20.00;1.00;;;;;;4937932;29;19930;-48
2023/10/31 01:11:15;;;;;;;;;;;20.00;1.00;;;;;;4937822;29;20014;-50
2023/10/31 01:13:42;;;;;;;;;;;20.00;1.00;;;;;;4904979;29;19927;-50
2023/10/31 01:16:09;;;;;;;;;;;19.90;1.00;;;;;;4939459;29;20297;-48
2023/10/31 01:18:36;;;;;;;;;;;19.90;1.00;;;;;;4926516;29;20007;-49
2023/10/31 01:21:03;;;;;;;;;;;19.90;1.00;;;;;;4919810;29;19934;-49
2023/10/31 01:23:29;;;;;;;;;;;19.90;1.00;;;;;;4920700;29;19933;-48
2023/10/31 01:25:57;;;;;;;;;;;19.90;1.00;;;;;;4920233;29;20377;-48
2023/10/31 01:28:23;;;;;;;;;;;19.90;1.00;;;;;;4937688;29;19950;-48
2023/10/31 01:30:50;;;;;;;;;;;19.80;1.00;;;;;;4920436;29;20401;-49
2023/10/31 01:33:17;;;;;;;;;;;19.90;1.00;;;;;;4920295;29;19966;-50
2023/10/31 01:35:43;;;;;;;;;;;19.90;1.00;;;;;;4937304;29;19995;-50
2023/10/31 01:38:10;;;;;;;;;;;19.80;1.00;;;;;;4920445;29;19927;-53
2023/10/31 01:40:37;;;;;;;;;;;19.80;1.00;;;;;;4920175;29;19927;-48
2023/10/31 01:43:04;;;;;;;;;;;19.80;1.00;;;;;;4920098;29;19934;-48
2023/10/31 01:45:30;;;;;;;;;;;19.80;1.00;;;;;;4937163;29;19931;-50
2023/10/31 01:47:57;;;;;;;;;;;19.80;1.00;;;;;;4920091;29;19946;-50
2023/10/31 01:50:24;;;;;;;;;;;19.80;1.00;;;;;;4937018;29;19927;-50
2023/10/31 01:52:51;;;;;;;;;;;19.80;1.00;;;;;;4920058;29;19927;-48
2023/10/31 01:55:18;;;;;;;;;;;19.80;1.00;;;;;;4919729;29;20460;-52
2023/10/31 01:57:46;;;;;;;;;;;19.70;1.00;;;;;;4926437;29;20296;-48
2023/10/31 02:00:14;;;;;;;;;;;19.70;1.00;;;;;;4921397;29;19927;-50
2023/10/31 02:02:42;;;;;;;;;;;19.70;1.00;;;;;;4919935;29;19931;-48
2023/10/31 02:05:09;;;;;;;;;;;19.70;1.00;;;;;;4936563;29;19937;-48
2023/10/31 02:07:36;;;;;;;;;;;19.70;1.00;;;;;;4919824;29;20018;-49
2023/10/31 02:10:03;;;;;;;;;;;19.70;1.00;;;;;;4919799;29;19927;-49
2023/10/31 02:12:34;;;;;;;;;;;19.60;1.00;;;;;;4920849;29;20321;-50
2023/10/31 02:15:01;;;;;;;;;;;19.60;1.00;;;;;;4939889;29;19958;-48
2023/10/31 02:17:28;;;;;;;;;;;19.60;1.00;;;;;;4919696;29;19962;-48
2023/10/31 02:19:55;;;;;;;;;;;19.60;1.00;;;;;;4936601;29;19940;-48
2023/10/31 02:22:22;;;;;;;;;;;19.60;1.00;;;;;;4919549;29;19927;-54
2023/10/31 02:24:49;;;;;;;;;;;19.60;1.00;;;;;;4936429;29;19938;-48
2023/10/31 02:27:16;;;;;;;;;;;19.60;1.00;;;;;;4927182;29;19933;-50
2023/10/31 02:29:43;;;;;;;;;;;19.60;1.00;;;;;;4936437;29;20014;-49
2023/10/31 02:32:10;;;;;;;;;;;19.50;1.00;;;;;;4918099;29;19950;-48
2023/10/31 02:34:37;;;;;;;;;;;19.50;1.00;;;;;;4936257;29;20009;-48
2023/10/31 02:37:05;;;;;;;;;;;19.50;1.00;;;;;;4919333;29;19927;-50
2023/10/31 02:39:32;;;;;;;;;;;19.50;1.00;;;;;;4919233;29;19931;-50
2023/10/31 02:41:58;;;;;;;;;;;19.50;1.00;;;;;;4918982;29;20021;-49
2023/10/31 02:44:27;;;;;;;;;;;19.50;1.00;;;;;;4936203;29;19931;-51
2023/10/31 02:46:53;;;;;;;;;;;19.50;1.00;;;;;;4919161;29;19927;-50
2023/10/31 02:49:20;;;;;;;;;;;19.50;1.00;;;;;;4935892;29;19927;-53
2023/10/31 02:51:47;;;;;;;;;;;19.50;1.00;;;;;;4919198;29;20114;-51
2023/10/31 02:54:14;;;;;;;;;;;19.50;1.00;;;;;;4918620;29;20024;-49
2023/10/31 02:56:40;;;;;;;;;;;19.40;1.00;;;;;;4918790;29;20389;-51
2023/10/31 02:59:07;;;;;;;;;;;19.40;1.00;;;;;;4935833;29;19927;-48
2023/10/31 03:01:34;;;;;;;;;;;19.40;1.00;;;;;;4935886;29;19931;-50
2023/10/31 03:04:01;;;;;;;;;;;19.40;1.00;;;;;;4935795;29;19927;-53
2023/10/31 03:06:28;;;;;;;;;;;19.40;1.00;;;;;;4935729;29;20379;-51
2023/10/31 03:08:55;;;;;;;;;;;19.40;1.00;;;;;;4918647;29;19981;-50
2023/10/31 03:11:25;;;;;;;;;;;19.40;1.00;;;;;;4918478;29;20013;-48
2023/10/31 03:13:53;;;;;;;;;;;19.40;1.00;;;;;;4918468;29;19974;-49
2023/10/31 03:16:20;;;;;;;;;;;19.40;1.00;;;;;;4918546;29;19928;-49
2023/10/31 03:18:47;;;;;;;;;;;19.30;1.00;;;;;;4918505;29;19927;-49
2023/10/31 03:21:14;;;;;;;;;;;19.30;1.00;;;;;;4918472;29;19926;-50
2023/10/31 03:23:42;;;;;;;;;;;19.30;1.00;;;;;;4918194;29;20021;-51
2023/10/31 03:26:09;;;;;;;;;;;19.30;1.00;;;;;;4935293;29;20323;-48
2023/10/31 03:28:36;;;;;;;;;;;19.30;1.00;;;;;;4918431;29;19927;-51
2023/10/31 03:31:02;;;;;;;;;;;19.30;1.00;;;;;;4935386;29;20305;-50
2023/10/31 03:33:30;;;;;;;;;;;19.30;1.00;;;;;;4918240;29;19931;-48
2023/10/31 03:35:57;;;;;;;;;;;19.30;1.00;;;;;;4918203;29;19927;-50
2023/10/31 03:38:24;;;;;;;;;;;19.30;1.00;;;;;;4918209;29;19926;-49
2023/10/31 03:40:51;;;;;;;;;;;19.20;1.00;;;;;;4935147;29;19930;-50
2023/10/31 03:43:18;;;;;;;;;;;19.20;1.00;;;;;;4918068;29;20353;-51
2023/10/31 03:45:45;;;;;;;;;;;19.20;1.00;;;;;;4918029;29;20013;-49
2023/10/31 03:48:12;;;;;;;;;;;19.20;1.00;;;;;;4918078;29;19934;-53
2023/10/31 03:50:39;;;;;;;;;;;19.20;1.00;;;;;;4918208;29;19931;-49
2023/10/31 03:53:06;;;;;;;;;;;19.20;1.00;;;;;;4935103;29;20416;-49
2023/10/31 03:55:33;;;;;;;;;;;19.20;1.00;;;;;;4934915;29;20026;-49
2023/10/31 03:57:59;;;;;;;;;;;19.20;1.00;;;;;;4935261;29;20013;-53
2023/10/31 04:00:28;;;;;;;;;;;19.20;1.00;;;;;;4917398;29;20222;-50
2023/10/31 04:02:55;;;;;;;;;;;19.20;1.00;;;;;;4935221;29;19999;-48
2023/10/31 04:05:25;;;;;;;;;;;19.20;1.00;;;;;;4917519;29;20500;-49
2023/10/31 04:07:52;;;;;;;;;;;19.20;1.00;;;;;;4918057;29;20320;-48
2023/10/31 04:10:19;;;;;;;;;;;19.20;1.00;;;;;;4934858;29;19931;-52
2023/10/31 04:12:46;;;;;;;;;;;19.10;1.00;;;;;;4935018;29;19927;-48
2023/10/31 04:15:12;;;;;;;;;;;19.10;1.00;;;;;;4934812;29;19935;-49
2023/10/31 04:17:39;;;;;;;;;;;19.10;1.00;;;;;;4927353;29;20025;-50
2023/10/31 04:20:06;;;;;;;;;;;19.10;1.00;;;;;;4934844;29;19950;-51
2023/10/31 04:22:33;;;;;;;;;;;19.10;1.00;;;;;;4934722;29;19926;-48
2023/10/31 04:25:00;;;;;;;;;;;19.10;1.00;;;;;;4934676;29;20021;-48
2023/10/31 04:27:26;;;;;;;;;;;19.10;1.00;;;;;;4934811;29;19927;-53
2023/10/31 04:29:53;;;;;;;;;;;19.10;1.00;;;;;;4934695;29;20386;-49
2023/10/31 04:32:20;;;;;;;;;;;19.10;1.00;;;;;;4934711;29;19927;-50
2023/10/31 04:34:47;;;;;;;;;;;19.10;1.00;;;;;;4942586;29;19986;-49
2023/10/31 04:37:13;;;;;;;;;;;19.10;1.00;;;;;;4934876;29;19954;-49
2023/10/31 04:39:40;;;;;;;;;;;19.10;1.00;;;;;;4934576;29;20297;-48
2023/10/31 04:42:07;;;;;;;;;;;19.00;1.00;;;;;;4934720;29;19934;-49
2023/10/31 04:44:33;;;;;;;;;;;19.00;1.00;;;;;;4934492;29;19933;-50
2023/10/31 04:47:00;;;;;;;;;;;19.00;1.00;;;;;;4934575;29;20284;-48
2023/10/31 04:49:27;;;;;;;;;;;19.00;1.00;;;;;;4934528;29;19934;-50
2023/10/31 04:51:54;;;;;;;;;;;19.00;1.00;;;;;;4934944;29;20013;-49
2023/10/31 04:54:20;;;;;;;;;;;19.00;1.00;;;;;;4934296;29;19933;-48
2023/10/31 04:56:47;;;;;;;;;;;19.00;1.00;;;;;;4937036;29;19927;-50
2023/10/31 04:59:14;;;;;;;;;;;19.00;1.00;;;;;;4938166;29;19973;-49
2023/10/31 05:01:41;;;;;;;;;;;19.00;1.00;;;;;;4937914;29;19974;-49
2023/10/31 05:04:07;;;;;;;;;;;19.00;1.00;;;;;;4937918;29;19927;-50
2023/10/31 05:06:39;;;;;;;;;;;19.00;1.00;;;;;;4937952;29;20468;-48
2023/10/31 05:09:06;;;;;;;;;;;19.00;1.00;;;;;;4937954;29;19927;-49
2023/10/31 05:11:33;;;;;;;;;;;19.00;1.00;;;;;;4936914;29;19990;-50
2023/10/31 05:14:02;;;;;;;;;;;18.90;1.00;;;;;;4936995;29;20463;-50
2023/10/31 05:16:29;;;;;;;;;;;18.90;1.00;;;;;;4917793;29;20377;-49
2023/10/31 05:18:59;;;;;;;;;;;18.90;1.00;;;;;;4937732;29;20401;-48
2023/10/31 05:21:26;;;;;;;;;;;18.90;1.00;;;;;;4937775;29;19970;-53
2023/10/31 05:23:53;;;;;;;;;;;18.90;1.00;;;;;;4920589;29;19942;-49
2023/10/31 05:26:21;;;;;;;;;;;18.90;1.00;;;;;;4937704;29;20285;-50
2023/10/31 05:28:47;;;;;;;;;;;18.90;1.00;;;;;;4937188;29;20037;-53
2023/10/31 05:31:17;;;;;;;;;;;18.90;1.00;;;;;;4937912;29;19993;-49
2023/10/31 05:33:44;;;;;;;;;;;18.80;1.00;;;;;;4937379;29;20029;-48
2023/10/31 05:36:23;;;;;;;;;;;18.80;1.00;;;;;;4937507;29;20002;-48
2023/10/31 05:38:50;;;;;;;;;;;18.80;1.00;;;;;;4937528;29;20480;-50
2023/10/31 05:41:17;;;;;;;;;;;18.80;1.00;;;;;;4937152;29;19950;-50
2023/10/31 05:43:43;;;;;;;;;;;18.80;1.00;;;;;;4937198;29;19927;-49
2023/10/31 05:46:10;;;;;;;;;;;18.80;1.00;;;;;;4937370;29;19927;-48
2023/10/31 05:48:38;;;;;;;;;;;18.80;1.00;;;;;;4937209;29;19926;-48
2023/10/31 05:51:15;;;;;;;;;;;18.80;1.00;;;;;;4937173;29;19927;-48
2023/10/31 05:53:43;;;;;;;;;;;18.80;1.00;;;;;;4936864;29;19957;-49
2023/10/31 05:56:11;;;;;;;;;;;18.80;1.00;;;;;;4937636;29;20002;-49
2023/10/31 05:58:38;;;;;;;;;;;18.80;1.00;;;;;;4937062;29;19931;-50
2023/10/31 06:01:05;;;;;;;;;;;18.80;1.00;;;;;;4936972;29;20361;-51
2023/10/31 06:03:32;;;;;;;;;;;18.80;1.00;;;;;;4936727;29;19933;-48
2023/10/31 06:05:59;;;;;;;;;;;18.80;1.00;;;;;;4936692;29;19931;-49
2023/10/31 06:08:28;;;;;;;;;;;18.80;1.00;;;;;;4917171;29;19934;-52
2023/10/31 06:10:56;;;;;;;;;;;18.70;1.00;;;;;;4936655;29;20018;-48
2023/10/31 06:13:23;;;;;;;;;;;18.70;1.00;;;;;;4936376;29;20367;-49
2023/10/31 06:15:50;;;;;;;;;;;18.70;1.00;;;;;;4936113;29;20419;-49
2023/10/31 06:18:16;;;;;;;;;;;18.70;1.00;;;;;;4936704;29;20021;-51
2023/10/31 06:20:43;;;;;;;;;;;18.70;1.00;;;;;;4936380;29;19926;-48
2023/10/31 06:23:10;;;;;;;;;;;18.70;1.00;;;;;;4919451;29;19930;-48
2023/10/31 06:25:36;;;;;;;;;;;18.70;1.00;;;;;;4936446;29;19926;-49
2023/10/31 06:28:03;;;;;;;;;;;18.70;1.00;;;;;;4936459;29;20305;-47
2023/10/31 06:30:30;;;;;;;;;;;18.60;1.00;;;;;;4936119;29;19942;-48
2023/10/31 06:32:58;;;;;;;;;;;18.70;1.00;;;;;;4936545;29;20041;-48
2023/10/31 06:35:24;;;;;;;;;;;18.60;1.00;;;;;;4936093;29;20025;-50
2023/10/31 06:37:56;;;;;;;;;;;18.60;1.00;;;;;;4936670;29;20337;-49
2023/10/31 06:40:24;;;;;;;;;;;18.60;1.00;;;;;;4935128;29;19927;-49
2023/10/31 06:42:50;;;;;;;;;;;18.60;1.00;;;;;;4935467;29;19927;-48
2023/10/31 06:45:17;;;;;;;;;;;18.60;1.00;;;;;;4935574;29;20412;-49
2023/10/31 06:47:44;;;;;;;;;;;18.60;1.00;;;;;;4936043;29;19933;-48
2023/10/31 06:50:10;;;;;;;;;;;18.60;1.00;;;;;;4935912;29;20364;-50
2023/10/31 06:52:37;;;;;;;;;;;18.60;1.00;;;;;;4943989;29;19927;-50
2023/10/31 06:55:04;;;;;;;;;;;18.60;1.00;;;;;;4935838;29;19958;-49
2023/10/31 06:57:31;;;;;;;;;;;18.60;1.00;;;;;;4936081;29;19961;-49
2023/10/31 06:59:58;;;;;;;;;;;18.50;1.00;;;;;;4935936;29;19954;-48
2023/10/31 07:02:25;;;;;;;;;;;18.60;1.00;;;;;;4935916;29;19934;-49
2023/10/31 07:04:52;;;;;;;;;;;18.60;1.00;;;;;;4935480;29;19927;-48
2023/10/31 07:07:19;;;;;;;;;;;18.50;1.00;;;;;;4935771;29;19926;-50
2023/10/31 07:09:46;;;;;;;;;;;18.50;1.00;;;;;;4935617;29;19962;-48
2023/10/31 07:12:13;;;;;;;;;;;18.50;1.00;;;;;;4935791;29;19926;-51
2023/10/31 07:14:39;;;;;;;;;;;18.50;1.00;;;;;;4935373;29;19953;-48
2023/10/31 07:17:06;;;;;;;;;;;18.50;1.00;;;;;;4935589;29;19969;-49
2023/10/31 07:19:33;;;;;;;;;;;18.50;1.00;;;;;;4934721;29;19949;-47
2023/10/31 07:21:59;;;;;;;;;;;18.50;1.00;;;;;;4943554;29;19998;-50
2023/10/31 07:24:27;;;;;;;;;;;18.50;1.00;;;;;;4935341;29;19965;-47
2023/10/31 07:26:54;;;;;;;;;;;18.50;1.00;;;;;;4935460;29;19933;-48
2023/10/31 07:29:21;;;;;;;;;;;18.50;1.00;;;;;;4935476;29;19926;-49
2023/10/31 07:31:48;;;;;;;;;;;18.50;1.00;;;;;;4935366;29;19927;-47
2023/10/31 07:34:15;;;;;;;;;;;18.50;1.00;;;;;;4943165;29;19949;-48
2023/10/31 07:36:42;;;;;;;;;;;18.40;1.00;;;;;;4935355;29;20014;-49
2023/10/31 07:39:09;;;;;;;;;;;18.40;1.00;;;;;;4918417;29;20033;-47
2023/10/31 07:41:35;;;;;;;;;;;18.40;1.00;;;;;;4935101;29;19927;-50
2023/10/31 07:44:02;;;;;;;;;;;18.40;1.00;;;;;;4935112;29;19955;-48
2023/10/31 07:46:29;;;;;;;;;;;18.40;1.00;;;;;;4934948;29;19977;-47
2023/10/31 07:48:56;;;;;;;;;;;18.40;1.00;;;;;;4935010;29;19934;-49
2023/10/31 07:51:22;;;;;;;;;;;18.40;1.00;;;;;;4935107;29;19927;-49
2023/10/31 07:53:49;;;;;;;;;;;18.40;1.00;;;;;;4934845;29;19930;-48
2023/10/31 07:56:16;;;;;;;;;;;18.40;1.00;;;;;;4935220;29;20392;-49
2023/10/31 07:58:43;;;;;;;;;;;18.40;1.00;;;;;;4934952;29;19926;-47
2023/10/31 08:01:11;;;;;;;;;;;18.40;1.00;;;;;;4935053;29;19934;-47
2023/10/31 08:03:37;;;;;;;;;;;18.40;1.00;;;;;;4935079;29;20331;-48
2023/10/31 08:06:05;;;;;;;;;;;18.40;1.00;;;;;;4934916;29;19931;-51
2023/10/31 08:08:32;;;;;;;;;;;18.40;1.00;;;;;;4935024;29;19927;-47
2023/10/31 08:10:59;;;;;;;;;;;18.40;1.00;;;;;;4935011;29;19927;-49
2023/10/31 08:13:25;;;;;;;;;;;18.40;1.00;;;;;;4935025;29;19933;-50
2023/10/31 08:15:52;;;;;;;;;;;18.40;1.00;;;;;;4934794;29;20285;-48
2023/10/31 08:18:19;;;;;;;;;;;18.40;1.00;;;;;;4935160;29;19966;-48
2023/10/31 08:20:48;;;;;;;;;;;18.40;1.00;;;;;;4934820;29;19927;-48
2023/10/31 08:23:15;;;;;;;;;;;18.40;1.00;;;;;;4934920;29;19926;-49
2023/10/31 08:25:42;;;;;;;;;;;18.40;1.00;;;;;;4934591;29;19990;-48
2023/10/31 08:28:09;;;;;;;;;;;18.30;1.00;;;;;;4934811;29;19934;-47
2023/10/31 08:30:36;;;;;;;;;;;18.30;1.00;;;;;;4936931;29;19927;-47
2023/10/31 08:33:03;;;;;;;;;;;18.30;1.00;;;;;;4938704;29;20021;-47
2023/10/31 08:35:30;;;;;;;;;;;18.30;1.00;;;;;;4938659;29;19962;-50
2023/10/31 08:37:57;;;;;;;;;;;18.30;1.00;;;;;;4940636;29;19935;-50
2023/10/31 08:40:24;;;;;;;;;;;18.30;1.00;;;;;;4940923;29;19927;-48
2023/10/31 08:42:50;;;;;;;;;;;18.30;1.00;;;;;;4938445;29;19994;-47
2023/10/31 08:45:17;;;;;;;;;;;18.30;1.00;;;;;;4938176;29;19990;-47
2023/10/31 08:47:44;;;;;;;;;;;18.30;1.00;;;;;;4938290;29;20408;-47
2023/10/31 08:50:11;;;;;;;;;;;18.30;1.00;;;;;;4938267;29;20004;-49
2023/10/31 08:52:38;;;;;;;;;;;18.30;1.00;;;;;;4938401;29;20025;-48
2023/10/31 08:55:05;;;;;;;;;;;18.30;1.00;;;;;;4938043;29;19927;-49
2023/10/31 08:57:33;;;;;;;;;;;18.30;1.00;;;;;;4938390;29;19927;-50
2023/10/31 09:00:00;;;;;;;;;;;18.40;1.00;;;;;;4938261;29;20432;-51
2023/10/31 09:02:27;;;;;;;;;;;18.30;1.00;;;;;;4938413;29;19930;-51
2023/10/31 09:04:53;;;;;;;;;;;18.40;1.00;;;;;;4937948;29;19938;-52
2023/10/31 09:07:20;;;;;;;;;;;18.40;1.00;;;;;;4938009;29;19931;-54
2023/10/31 09:09:47;;;;;;;;;;;18.40;1.00;;;;;;4937771;29;19930;-51
2023/10/31 09:12:13;;;;;;;;;;;18.40;1.00;;;;;;4938117;29;19930;-53
2023/10/31 09:14:42;;;;;;;;;;;18.40;1.00;;;;;;4937761;29;20400;-53
2023/10/31 09:17:08;;;;;;;;;;;18.40;1.00;;;;;;4937842;29;19966;-53
2023/10/31 09:19:35;;;;;;;;;;;18.40;1.00;;;;;;4937776;29;20482;-53
2023/10/31 09:22:02;;;;;;;;;;;18.40;1.00;;;;;;4937539;29;19927;-54
2023/10/31 09:24:28;;;;;;;;;;;18.40;1.00;;;;;;4937440;29;19934;-53
2023/10/31 09:26:55;;;;;;;;;;;18.40;1.00;;;;;;4937660;29;19933;-53
2023/10/31 09:29:22;;;;;;;;;;;18.40;1.00;;;;;;4937573;29;19927;-53
2023/10/31 09:31:55;;;;;;;;;;;18.40;1.00;;;;;;4939263;29;19933;-51
2023/10/31 09:34:22;;;;;;;;;;;18.40;1.00;;;;;;4937850;29;19927;-49
2023/10/31 09:36:49;;;;;;;;;;;18.40;1.00;;;;;;4937320;29;20333;-52
2023/10/31 09:39:16;;;;;;;;;;;18.40;1.00;;;;;;4937311;29;19926;-51
2023/10/31 09:41:42;;;;;;;;;;;18.40;1.00;;;;;;4936650;29;20018;-48
2023/10/31 09:44:09;;;;;;;;;;;18.40;1.00;;;;;;4937219;29;20415;-50
2023/10/31 09:46:36;;;;;;;;;;;18.40;1.00;;;;;;4937237;29;19931;-53
2023/10/31 09:49:04;;;;;;;;;;;18.40;1.00;;;;;;4937171;29;20407;-50
2023/10/31 09:51:32;;;;;;;;;;;18.40;1.00;;;;;;4936920;29;19937;-51
2023/10/31 09:53:59;;;;;;;;;;;18.40;1.00;;;;;;4936748;29;19934;-52
2023/10/31 09:56:26;;;;;;;;;;;18.40;1.00;;;;;;4937097;29;19927;-53
2023/10/31 09:58:53;;;;;;;;;;;18.40;1.00;;;;;;4919926;29;19927;-47
2023/10/31 10:01:20;;;;;;;;;;;18.40;1.00;;;;;;4936870;29;19926;-53
2023/10/31 10:03:47;;;;;;;;;;;18.50;1.00;;;;;;4936619;29;20449;-50
2023/10/31 10:06:15;;;;;;;;;;;18.50;1.00;;;;;;4936721;29;19938;-48
2023/10/31 10:08:41;;;;;;;;;;;18.50;1.00;;;;;;4936917;29;19931;-52
2023/10/31 10:11:08;;;;;;;;;;;18.50;1.00;;;;;;4936725;29;19927;-49
2023/10/31 10:13:35;;;;;;;;;;;18.50;1.00;;;;;;4936802;29;19934;-52
2023/10/31 10:16:02;;;;;;;;;;;18.50;1.00;;;;;;4936541;29;19927;-49
2023/10/31 10:18:29;;;;;;;;;;;18.50;1.00;;;;;;4936678;29;20349;-52
2023/10/31 10:20:59;;;;;;;;;;;18.50;1.00;;;;;;4936552;29;20025;-49
2023/10/31 10:23:27;;;;;;;;;;;18.50;1.00;;;;;;4936729;29;19969;-52
2023/10/31 10:25:54;;;;;;;;;;;18.50;1.00;;;;;;4936292;29;19982;-49
2023/10/31 10:28:21;;;;;;;;;;;18.60;1.00;;;;;;4936546;29;19937;-49
2023/10/31 10:30:48;;;;;;;;;;;18.60;1.00;;;;;;4936220;29;20042;-48
2023/10/31 10:33:15;;;;;;;;;;;18.60;1.00;;;;;;4936682;29;20273;-48
2023/10/31 10:35:42;;;;;;;;;;;18.60;1.00;;;;;;4936273;29;20377;-50
2023/10/31 10:38:14;;;;;;;;;;;18.60;1.00;;;;;;4936296;29;19927;-53
2023/10/31 10:40:44;;;;;;;;;;;18.60;1.00;;;;;;4936141;29;19927;-48
2023/10/31 10:43:20;;;;;;;;;;;18.60;1.00;;;;;;4936208;29;19938;-48
2023/10/31 10:45:49;;;;;;;;;;;18.60;1.00;;;;;;4936037;29;20401;-48
2023/10/31 10:48:16;;;;;;;;;;;18.60;1.00;;;;;;4936156;29;19933;-51
2023/10/31 10:50:45;;;;;;;;;;;18.60;1.00;;;;;;4936016;29;20190;-52
2023/10/31 10:53:20;;;;;;;;;;;18.60;1.00;;;;;;4934631;29;19927;-49
2023/10/31 10:55:51;;;;;;;;;;;18.60;1.00;;;;;;4915981;29;19934;-48
2023/10/31 10:58:37;;;;;;;;;;;18.60;1.00;;;;;;4933772;29;19950;-49
2023/10/31 11:01:04;;;;;;;;;;;18.60;1.00;;;;;;4934715;29;19982;-48
2023/10/31 11:03:32;;;;;;;;;;;18.60;1.00;;;;;;4935974;29;19938;-48
2023/10/31 11:05:59;;;;;;;;;;;18.60;1.00;;;;;;4935469;29;19974;-48
2023/10/31 11:08:27;;;;;;;;;;;18.60;1.00;;;;;;4935691;29;20369;-48
2023/10/31 11:10:55;;;;;;;;;;;18.60;1.00;;;;;;4935663;29;19926;-49
2023/10/31 11:13:24;;;;;;;;;;;18.60;1.00;;;;;;4935765;29;19931;-49
2023/10/31 11:15:52;;;;;;;;;;;18.60;1.00;;;;;;4935526;29;19927;-52
2023/10/31 11:18:19;;;;;;;;;;;18.60;1.00;;;;;;4935652;29;19926;-51
2023/10/31 11:20:46;;;;;;;;;;;18.60;1.00;;;;;;4935877;29;20667;-51
2023/10/31 11:23:13;;;;;;;;;;;18.50;1.00;;;;;;4932002;29;19950;-49
2023/10/31 11:25:43;;;;;;;;;;;18.50;1.00;;;;;;4931527;29;20006;-51
2023/10/31 11:28:11;;;;;;;;;;;18.50;1.00;;;;;;4931386;29;20274;-52
2023/10/31 11:30:38;;;;;;;;;;;18.50;1.00;;;;;;4931966;29;19970;-51
2023/10/31 11:33:05;;;;;;;;;;;18.50;1.00;;;;;;4931161;29;19927;-49
2023/10/31 11:35:35;;;;;;;;;;;18.50;1.00;;;;;;4928158;29;19931;-54
2023/10/31 11:38:09;;;;;;;;;;;18.50;1.00;;;;;;4935241;29;19947;-52
2023/10/31 11:40:36;;;;;;;;;;;18.50;1.00;;;;;;4935199;29;19927;-49
2023/10/31 11:43:04;;;;;;;;;;;18.50;1.00;;;;;;4935062;29;20017;-53
2023/10/31 11:45:36;;;;;;;;;;;18.50;1.00;;;;;;4935035;29;20021;-51
2023/10/31 11:48:06;;;;;;;;;;;18.50;1.00;;;;;;4934988;29;19933;-53
2023/10/31 11:50:34;;;;;;;;;;;18.50;1.00;;;;;;4935068;29;19962;-52
2023/10/31 11:53:01;;;;;;;;;;;18.50;1.00;;;;;;4934835;29;19926;-48
2023/10/31 11:55:28;;;;;;;;;;;18.50;1.00;;;;;;4934195;29;19927;-50
2023/10/31 11:57:55;;;;;;;;;;;18.50;1.00;;;;;;4934101;29;19927;-52
2023/10/31 12:00:22;;;;;;;;;;;18.50;1.00;;;;;;4935387;29;19931;-49
2023/10/31 12:02:59;;;;;;;;;;;18.50;1.00;;;;;;4935107;29;19927;-49
2023/10/31 12:05:26;;;;;;;;;;;18.50;1.00;;;;;;4938742;29;19927;-48
2023/10/31 12:07:53;;;;;;;;;;;18.50;1.00;;;;;;4941267;29;19934;-51
2023/10/31 12:10:29;;;;;;;;;;;18.50;1.00;;;;;;4941335;29;19927;-53
2023/10/31 12:12:58;;;;;;;;;;;18.50;1.00;;;;;;4940973;29;19927;-51
2023/10/31 12:15:25;;;;;;;;;;;18.50;1.00;;;;;;4941100;29;19927;-51
2023/10/31 12:17:51;;;;;;;;;;;18.50;1.00;;;;;;4941391;29;20037;-50
2023/10/31 12:20:18;;;;;;;;;;;18.50;1.00;;;;;;4941359;29;19933;-49
2023/10/31 12:22:45;;;;;;;;;;;18.50;1.00;;;;;;4941410;29;19962;-48
2023/10/31 12:25:12;;;;;;;;;;;18.50;1.00;;;;;;4940906;29;20373;-50
2023/10/31 12:27:43;;;;;;;;;;;18.50;1.00;;;;;;4940733;29;19926;-51
2023/10/31 12:30:10;;;;;;;;;;;18.50;1.00;;;;;;4940938;29;19926;-51
2023/10/31 12:32:37;;;;;;;;;;;18.50;1.00;;;;;;4941154;29;19966;-51
2023/10/31 12:35:04;;;;;;;;;;;18.50;1.00;;;;;;4940765;29;20400;-49
2023/10/31 12:37:31;;;;;;;;;;;18.50;1.00;;;;;;4941189;29;20297;-51
2023/10/31 12:39:58;;;;;;;;;;;18.50;1.00;;;;;;4940751;29;19933;-48
2023/10/31 12:42:29;;;;;;;;;;;18.50;1.00;;;;;;4941103;29;20417;-48
2023/10/31 12:44:56;;;;;;;;;;;18.50;1.00;;;;;;4940925;29;20271;-51
2023/10/31 12:47:23;;;;;;;;;;;18.50;1.00;;;;;;4941114;29;19927;-51
2023/10/31 12:50:09;;;;;;;;;;;18.50;1.00;;;;;;4940891;29;19938;-51
2023/10/31 12:52:50;;;;;;;;;;;18.50;1.00;;;;;;4940788;29;19927;-48
2023/10/31 12:55:18;;;;;;;;;;;18.50;1.00;;;;;;4940645;29;20360;-50
2023/10/31 12:57:48;;;;;;;;;;;18.50;1.00;;;;;;4941290;29;19966;-50
2023/10/31 13:00:17;;;;;;;;;;;18.50;1.00;;;;;;4940558;29;19934;-50
2023/10/31 13:02:44;;;;;;;;;;;18.50;1.00;;;;;;4940951;29;19926;-49
2023/10/31 13:05:15;;;;;;;;;;;18.50;1.00;;;;;;4940491;29;19930;-51
2023/10/31 13:07:49;;;;;;;;;;;18.50;1.00;;;;;;4941046;29;20305;-49
2023/10/31 13:10:16;;;;;;;;;;;18.50;1.00;;;;;;4942998;29;19926;-48
2023/10/31 13:12:44;;;;;;;;;;;18.50;1.00;;;;;;4946457;28;19926;-51
2023/10/31 13:15:11;;;;;;;;;;;18.50;1.00;;;;;;4940553;29;20355;-49
2023/10/31 13:17:38;;;;;;;;;;;18.50;1.00;;;;;;4936896;29;19938;-48
2023/10/31 13:20:06;;;;;;;;;;;18.50;1.00;;;;;;4937566;29;19927;-50
2023/10/31 13:22:33;;;;;;;;;;;18.50;1.00;;;;;;4920703;29;19927;-50
2023/10/31 13:24:59;;;;;;;;;;;18.50;1.00;;;;;;4937501;29;19926;-50
2023/10/31 13:27:26;;;;;;;;;;;18.50;1.00;;;;;;4937669;29;19926;-49
2023/10/31 13:29:53;;;;;;;;;;;18.50;1.00;;;;;;4937166;29;19933;-49
2023/10/31 13:32:21;;;;;;;;;;;18.50;1.00;;;;;;4937457;29;20002;-49
2023/10/31 13:34:48;;;;;;;;;;;18.50;1.00;;;;;;4937264;29;19928;-49
2023/10/31 13:37:16;;;;;;;;;;;18.50;1.00;;;;;;4937158;29;19926;-52
2023/10/31 13:39:43;;;;;;;;;;;18.50;1.00;;;;;;4936800;29;19931;-48
2023/10/31 13:42:10;;;;;;;;;;;18.50;1.00;;;;;;4937240;29;19974;-49
2023/10/31 13:44:37;;;;;;;;;;;18.50;1.00;;;;;;4937046;29;20354;-51
2023/10/31 13:47:04;;;;;;;;;;;18.50;1.00;;;;;;4937216;29;19926;-50
2023/10/31 13:49:31;;;;;;;;;;;18.50;1.00;;;;;;4937092;29;19962;-48
2023/10/31 13:51:58;;;;;;;;;;;18.50;1.00;;;;;;4936846;29;19934;-51
2023/10/31 13:54:25;;;;;;;;;;;18.50;1.00;;;;;;4936808;29;19998;-51
2023/10/31 13:56:53;;;;;;;;;;;18.50;1.00;;;;;;4937135;29;20412;-49
2023/10/31 13:59:20;;;;;;;;;;;18.50;1.00;;;;;;4936798;29;19934;-47
2023/10/31 14:01:47;;;;;;;;;;;18.50;1.00;;;;;;4938422;29;19951;-52
2023/10/31 14:04:13;;;;;;;;;;;18.50;1.00;;;;;;4938503;29;20317;-53
2023/10/31 14:06:41;;;;;;;;;;;18.50;1.00;;;;;;4937225;29;19926;-48
2023/10/31 14:09:09;;;;;;;;;;;18.50;1.00;;;;;;4936803;29;20451;-49
2023/10/31 14:11:36;;;;;;;;;;;18.50;1.00;;;;;;4936693;29;20585;-48
2023/10/31 14:14:06;;;;;;;;;;;18.50;1.00;;;;;;4919565;29;20396;-47
2023/10/31 14:16:33;;;;;;;;;;;18.50;1.00;;;;;;4936796;29;19935;-48
2023/10/31 14:19:02;;;;;;;;;;;18.50;1.00;;;;;;4936922;29;19926;-49
2023/10/31 14:21:29;;;;;;;;;;;18.50;1.00;;;;;;4936537;29;19934;-49
2023/10/31 14:23:56;;;;;;;;;;;18.50;1.00;;;;;;4936441;29;20304;-48
2023/10/31 14:26:34;;;;;;;;;;;18.50;1.00;;;;;;4936289;29;19931;-48
2023/10/31 14:29:01;;;;;;;;;;;18.50;1.00;;;;;;4936480;29;20029;-52
2023/10/31 14:31:28;;;;;;;;;;;18.50;1.00;;;;;;4936145;29;19941;-49